Tiempo atmosférico en la estación meteorológica de Alcoy/Alcoi, Alacant/Alicante (600 m.)

Fecha
DESCASC
Temp. máxima en grados centígrados (hora)
DESCASC
Temp. mínima en grados centígrados (hora)
DESCASC
Temp. media en grados centígrados
DESCASC
Racha de viento máxima en m/sg (hora)
DESCASC
Velocidad máxima media en intervalos de 10 minutos(hora)
DESCASC
Precipitaciones diarias en mm
DESCASC
Precipitaciones de 00:00 a 06:00 en mm
DESCASC
Precipitaciones de 06:00 a 12:00 en mm
DESCASC
Precipitaciones de 12:00 a 18:00 en mm
DESCASC
Precipitaciones de 18:00 a 24:00 en mm
DESCASC
23-11-2017 24.7 (13:20) 8.3 (05:20) 16.5 7.78 (13:30) 4.72 (01:30) 0 0 0 0 0
22-11-2017 22.8 (13:30) 7.6 (07:10) 15.2 6.67 (14:20) 4.17 (04:00) 0 0 0 0 0
21-11-2017 22.6 (14:30) 7.8 (07:20) 15.2 6.39 (03:00) 4.17 (02:50) 0 0 0 0 0
20-11-2017 23.9 (15:30) 5.1 (06:10) 14.5 6.39 (23:30) 3.89 (23:30) 0 0 0 0 0
19-11-2017 22.6 (15:10) 4.3 (00:00) 13.5 5.28 (18:20) 3.89 (03:20) 0 0 0 0 0
18-11-2017 22.3 (12:50) 7 (00:00) 14.6 6.39 (15:10) 4.17 (05:20) 0 0 0 0 0
17-11-2017 19.3 (15:10) 4.9 (00:00) 12.1 5.28 (21:10) 3.61 (21:10) 0 0 0 0 0
16-11-2017 17.9 (15:20) 3.3 (00:00) 10.6 5.56 (13:40) 3.33 (05:20) 0 0 0 0 0
15-11-2017 20 (15:30) 3.5 (00:00) 11.8 6.94 (14:00) 3.89 (22:00) 0 0 0 0 0
14-11-2017 16.3 (15:00) 1.9 (00:00) 9.1 5.83 (06:50) 3.33 (23:30) 0 0 0 0 0
13-11-2017 16.9 (12:10) 4.6 (00:00) 10.7 9.44 (06:40) 5.28 (06:40) 0 0 0 0 0
12-11-2017 24.1 (15:20) 7.9 (00:00) 16 7.22 (18:20) 4.44 (20:50) 0 0 0 0 0
11-11-2017 19.6 (14:30) 7 (00:00) 13.3 6.67 (15:10) 3.33 (05:20) 0 0 0 0 0
10-11-2017 17.1 (14:40) 3.1 (00:00) 10.1 7.78 (15:30) 3.61 (15:10) 0 0 0 0 0
09-11-2017 14 (15:20) 3.9 (00:00) 9 7.78 (11:20) 4.17 (11:50) 0 0 0 0 0
08-11-2017 18.9 (15:10) 6.3 (00:00) 12.6 5.56 (04:30) 3.89 (04:30) 0 0 0 0 0
07-11-2017 18.3 (14:50) 4 (00:00) 11.1 7.22 (12:20) 3.06 (12:20) 0 0 0 0 0
06-11-2017 17.1 (14:50) 7.4 (00:00) 12.3 9.17 (00:40) 4.72 (08:10) 0 0 0 0 0
05-11-2017 21.6 (14:10) 11.9 (00:00) 16.8 10 (10:40) 5 (03:30) 0 0 0 0 0
04-11-2017 22 (13:20) 12.3 (00:00) 17.2 10.28 (16:20) 5.83 (14:20) 0 0 0 0 0
03-11-2017 22.5 (16:00) 8.6 (00:00) 15.6 5 (02:30) 3.06 (02:10) 0 0 0 0 0
02-11-2017 22.8 (13:00) 9.7 (07:20) 16.2 7.5 (15:20) 4.17 (15:10) 0 0 0 0 0
01-11-2017 22.5 (13:50) 11.1 (00:00) 16.8 8.33 (14:50) 4.44 (15:30) 0 0 0 0 0
31-10-2017 20.2 (13:40) 11 (00:00) 15.6 6.67 (15:00) 3.61 (14:20) 0 0 0 0 0
30-10-2017 22.7 (14:20) 9.9 (00:00) 16.3 5.83 (04:20) 3.33 (04:20) 0 0 0 0 0
29-10-2017 23.6 (15:30) 11.5 (00:00) 17.6 6.39 (16:50) 3.33 (22:30) 0 0 0 0 0
28-10-2017 22.5 (13:50) 12.4 (00:00) 17.4 6.94 (16:10) 3.61 (16:10) 0 0 0 0 0
27-10-2017 30.2 (17:50) 13 (00:00) 21.6 6.11 (21:20) 4.17 (21:20) 0 0 0 0 0
26-10-2017 29.7 (15:10) 13 (00:00) 21.4 6.11 (16:30) 4.17 (04:10) 0 0 0 0 0
25-10-2017 28.4 (13:30) 14.3 (00:00) 21.3 7.78 (15:40) 3.89 (23:59) 0 0 0 0 0

Gráficas

Temp. máximas Temp. mínimas Temp. medias Precipitaciones Rachas de viento máximas Velocidades máximas media en intervalos de 10 minutos

Datos horarios

Fecha y hora oficial Temperatura (ºC) Velocidad del viento (km/h) Dirección del viento Racha (km/h) Dirección de racha Precipitación (mm) Presión (hPa) Tendencia (hPa) Humedad (%)
2017-11-23 23:00:00 12.9 12 Sudoeste 19 Sudoeste 0 -- -- 38
2017-11-23 22:00:00 13 15 Sudoeste 22 Sudoeste 0 -- -- 38
2017-11-23 21:00:00 13.7 12 Sudoeste 22 Sudoeste 0 -- -- 37
2017-11-23 20:00:00 15 11 Sudoeste 18 Sudoeste 0 -- -- 34
2017-11-23 19:00:00 17 7 Sudoeste 14 Oeste 0 -- -- 31
2017-11-23 18:00:00 19.2 7 Sudoeste 19 Oeste 0 -- -- 26
2017-11-23 17:00:00 20.6 3 Sudoeste 18 Sudoeste 0 -- -- 27
2017-11-23 16:00:00 22.3 8 Sudoeste 19 Oeste 0 -- -- 24
2017-11-23 15:00:00 23.3 11 Oeste 21 Oeste 0 -- -- 23
2017-11-23 14:00:00 23.9 14 Oeste 28 Oeste 0 -- -- 21
2017-11-23 13:00:00 24.1 9 Oeste 21 Noroeste 0 -- -- 23
2017-11-23 12:00:00 22.9 6 Sur 12 Sudeste 0 -- -- 22
2017-11-23 11:00:00 19.2 4 Este 8 Sudeste 0 -- -- 29
2017-11-23 10:00:00 15.5 2 Este 19 Sudoeste 0 -- -- 33
2017-11-23 09:00:00 11.6 13 Sudoeste 20 Sudoeste 0 -- -- 36
2017-11-23 08:00:00 10.4 12 Sudoeste 22 Sudoeste 0 -- -- 38
2017-11-23 07:00:00 9.3 6 Sudoeste 23 Sudoeste 0 -- -- 40
2017-11-23 06:00:00 8.9 10 Sudoeste 17 Sudoeste 0 -- -- 41
2017-11-23 05:00:00 8.8 11 Sudoeste 21 Sudoeste 0 -- -- 42
2017-11-23 04:00:00 8.4 17 Sudoeste 24 Sudoeste 0 -- -- 43
2017-11-23 03:00:00 9 13 Sudoeste 20 Sudoeste 0 -- -- 42
2017-11-23 02:00:00 8.7 11 Sudoeste 24 Sudoeste 0 -- -- 45
2017-11-23 01:00:00 9.7 13 Sudoeste 22 Sudoeste 0 -- -- 43
2017-11-23 00:00:00 9.9 12 Sudoeste 22 Sudoeste 0 -- -- 43
2017-11-22 23:00:00 10.7 14 Sudoeste 20 Sudoeste 0 -- -- 42
2017-11-22 22:00:00 10.7 11 Sudoeste 21 Sudoeste 0 -- -- 45
2017-11-22 21:00:00 11.3 12 Sudoeste 18 Sudoeste 0 -- -- 46
2017-11-22 20:00:00 12.6 9 Sudoeste 15 Sudoeste 0 -- -- 44
2017-11-22 19:00:00 14 9 Sudoeste 17 Sudoeste 0 -- -- 44
2017-11-22 18:00:00 15.6 8 Sudoeste 22 Sudoeste 0 -- -- 45
2017-11-22 17:00:00 17.6 8 Sudoeste 23 Sudoeste 0 -- -- 38
2017-11-22 16:00:00 20.2 12 Sur 22 Sudoeste 0 -- -- 28
2017-11-22 15:00:00 20.1 10 Sur 24 Sur 0 -- -- 29
2017-11-22 14:00:00 21.6 5 Sur 18 Sudeste 0 -- -- 26
2017-11-22 13:00:00 21.8 8 Sudeste 14 Sur 0 -- -- 24
2017-11-22 12:00:00 18.9 7 Nordeste 9 Nordeste 0 -- -- 29
2017-11-22 11:00:00 16.7 4 Este 7 Nordeste 0 -- -- 29
2017-11-22 10:00:00 14.2 0 Calma 17 Sudoeste 0 -- -- 35
2017-11-22 09:00:00 9.8 12 Sudoeste 19 Sudoeste 0 -- -- 40
2017-11-22 08:00:00 7.9 13 Sudoeste 21 Sudoeste 0 -- -- 45
2017-11-22 07:00:00 7.9 13 Sudoeste 19 Sudoeste 0 -- -- 45
2017-11-22 06:00:00 7.9 9 Sudoeste 19 Sudoeste 0 -- -- 44
2017-11-22 05:00:00 8.5 12 Sudoeste 22 Sudoeste 0 -- -- 42
2017-11-22 04:00:00 8.4 15 Sudoeste 21 Oeste 0 -- -- 42
2017-11-22 03:00:00 9.4 11 Sudoeste 22 Sudoeste 0 -- -- 40
2017-11-22 02:00:00 9.3 12 Sudoeste 22 Sudoeste 0 -- -- 42
2017-11-22 01:00:00 9.6 13 Sudoeste 21 Sudoeste 0 -- -- 43
2017-11-22 00:00:00 9.9 14 Sudoeste 22 Sudoeste 0 -- -- 43
2017-11-21 23:00:00 9 11 Sudoeste 19 Sudoeste 0 -- -- 47
2017-11-21 22:00:00 9.9 9 Sudoeste 18 Sudoeste 0 -- -- 46
2017-11-21 21:00:00 10.9 11 Sudoeste 17 Sudoeste 0 -- -- 45
2017-11-21 20:00:00 12.3 9 Sudoeste 17 Sudoeste 0 -- -- 44
2017-11-21 19:00:00 13.7 11 Sudoeste 16 Sudoeste 0 -- -- 38
2017-11-21 18:00:00 15.2 4 Sudoeste 10 Sudoeste 0 -- -- 35
2017-11-21 17:00:00 18.4 5 Nordeste 17 Nordeste 0 -- -- 30
2017-11-21 16:00:00 21.2 9 Nordeste 14 Norte 0 -- -- 21
2017-11-21 15:00:00 22.5 8 Nordeste 14 Nordeste 0 -- -- 17
2017-11-21 14:00:00 21.9 9 Nordeste 15 Nordeste 0 -- -- 18
2017-11-21 13:00:00 21.5 7 Este 12 Nordeste 0 -- -- 22
2017-11-21 12:00:00 20.4 5 Este 11 Nordeste 0 -- -- 24
2017-11-21 11:00:00 17.2 3 Nordeste 5 Nordeste 0 -- -- 28
2017-11-21 10:00:00 13.8 4 Nordeste 16 Sudoeste 0 -- -- 32
2017-11-21 09:00:00 11.4 12 Sudoeste 20 Sudoeste 0 -- -- 32
2017-11-21 08:00:00 9.4 12 Sudoeste 19 Sudoeste 0 -- -- 34
2017-11-21 07:00:00 8.9 5 Sudoeste 19 Sudoeste 0 -- -- 34
2017-11-21 06:00:00 9.4 15 Sudoeste 20 Sudoeste 0 -- -- 31
2017-11-21 05:00:00 9.6 13 Sudoeste 20 Sudoeste 0 -- -- 32
2017-11-21 04:00:00 9.3 10 Sudoeste 22 Sudoeste 0 -- -- 34
2017-11-21 03:00:00 8.8 13 Sudoeste 23 Sudoeste 0 -- -- 37
2017-11-21 02:00:00 8.9 12 Sudoeste 19 Sudoeste 0 -- -- 41
2017-11-21 01:00:00 8.7 11 Sudoeste 18 Sudoeste 0 -- -- 48
2017-11-21 00:00:00 9 8 Oeste 23 Sudoeste 0 -- -- 51
2017-11-20 23:00:00 9.9 11 Sudoeste 17 Sudoeste 0 -- -- 53
2017-11-20 22:00:00 10.2 9 Oeste 17 Oeste 0 -- -- 56
2017-11-20 21:00:00 11.2 9 Sudoeste 17 Sudoeste 0 -- -- 59
2017-11-20 20:00:00 12.8 8 Sudoeste 18 Sudoeste 0 -- -- 58
2017-11-20 19:00:00 14 8 Sudoeste 17 Sudoeste 0 -- -- 52
2017-11-20 18:00:00 15.1 4 Oeste 8 Este 0 -- -- 37
2017-11-20 17:00:00 19.1 2 Nordeste 12 Noroeste 0 -- -- 34
2017-11-20 16:00:00 23 6 Oeste 14 Oeste 0 -- -- 18
2017-11-20 15:00:00 22.1 7 Nordeste 12 Este 0 -- -- 25
2017-11-20 14:00:00 21.8 7 Este 14 Este 0 -- -- 26
2017-11-20 13:00:00 20.3 7 Este 13 Este 0 -- -- 34
2017-11-20 12:00:00 18.5 4 Nordeste 10 Este 0 -- -- 35
2017-11-20 11:00:00 16 5 Este 8 Este 0 -- -- 40
2017-11-20 10:00:00 13 0 Calma 4 Sur 0 -- -- 44
2017-11-20 09:00:00 8 2 Este 15 Sudoeste 0 -- -- 56
2017-11-20 08:00:00 6.2 7 Sudoeste 18 Sudoeste 0 -- -- 60
2017-11-20 07:00:00 5.8 10 Sudoeste 15 Sudoeste 0 -- -- 64
2017-11-20 06:00:00 5.4 0 Calma 15 Sudoeste 0 -- -- 68
2017-11-20 05:00:00 7.2 10 Sudoeste 15 Sudoeste 0 -- -- 61
2017-11-20 04:00:00 7.9 8 Sudoeste 14 Sudoeste 0 -- -- 62
2017-11-20 03:00:00 8.5 5 Sudoeste 22 Sudoeste 0 -- -- 61
2017-11-20 02:00:00 8.3 10 Sudoeste 18 Sudoeste 0 -- -- 65
2017-11-20 01:00:00 8.4 10 Sudoeste 19 Sudoeste 0 -- -- 69
2017-11-20 00:00:00 8.4 12 Sudoeste 18 Sudoeste 0 -- -- 71
2017-11-19 23:00:00 9.1 9 Sudoeste 19 Sudoeste 0 -- -- 68
2017-11-19 22:00:00 10.3 8 Sudoeste 16 Sudoeste 0 -- -- 67
2017-11-19 21:00:00 11.4 6 Sudoeste 17 Sudoeste 0 -- -- 65
2017-11-19 20:00:00 12.5 6 Sudoeste 17 Sudoeste 0 -- -- 63
2017-11-19 19:00:00 13.8 9 Sudoeste 19 Sudoeste 0 -- -- 54
2017-11-19 18:00:00 15.7 7 Sudoeste 12 Sudoeste 0 -- -- 48
2017-11-19 17:00:00 18.9 4 Oeste 12 Sudoeste 0 -- -- 28
2017-11-19 16:00:00 22.1 3 Nordeste 16 Sur 0 -- -- 28
2017-11-19 15:00:00 22.5 4 Sudoeste 12 Este 0 -- -- 28
2017-11-19 14:00:00 20.8 8 Este 15 Este 0 -- -- 31
2017-11-19 13:00:00 19.3 6 Este 12 Este 0 -- -- 36
2017-11-19 12:00:00 16.4 6 Este 13 Este 0 -- -- 48
2017-11-19 11:00:00 15.1 4 Nordeste 8 Este 0 -- -- 44
2017-11-19 10:00:00 10.9 4 Sudoeste 10 Sudoeste 0 -- -- 52
2017-11-19 09:00:00 6.5 8 Sudoeste 13 Sudoeste 0 -- -- 67
2017-11-19 08:00:00 4.7 7 Sudoeste 16 Sudoeste 0 -- -- 78
2017-11-19 07:00:00 4.3 9 Sudoeste 17 Sudoeste 0 -- -- 83
2017-11-19 06:00:00 4.7 6 Sudoeste 13 Sudoeste 0 -- -- 85
2017-11-19 05:00:00 5.2 7 Sudoeste 14 Sudoeste 0 -- -- 85
2017-11-19 04:00:00 6.4 10 Sudoeste 19 Sudoeste 0 -- -- 80
2017-11-19 03:00:00 6.6 12 Sudoeste 17 Sudoeste 0 -- -- 80
2017-11-19 02:00:00 6.1 8 Sudoeste 18 Sudoeste 0 -- -- 80
2017-11-19 01:00:00 6.6 9 Sudoeste 13 Sudoeste 0 -- -- 77
2017-11-19 00:00:00 7.1 7 Sudoeste 18 Sudoeste 0 -- -- 74
2017-11-18 23:00:00 7.8 9 Sudoeste 18 Sudoeste 0 -- -- 70
2017-11-18 22:00:00 8.5 9 Sudoeste 15 Sudoeste 0 -- -- 67
2017-11-18 21:00:00 9.9 9 Sudoeste 15 Sudoeste 0 -- -- 62
2017-11-18 20:00:00 10.9 8 Sudoeste 10 Sudoeste 0 -- -- 57
2017-11-18 19:00:00 11.4 0 Calma 7 Sur 0 -- -- 64
2017-11-18 18:00:00 14.8 5 Sudoeste 13 Sur 0 -- -- 49
2017-11-18 17:00:00 17.2 8 Sudoeste 19 Sudoeste 0 -- -- 40
2017-11-18 16:00:00 19.8 7 Sur 23 Sur 0 -- -- 32
2017-11-18 15:00:00 21.9 6 Sur 16 Sur 0 -- -- 23
2017-11-18 14:00:00 21.8 6 Este 20 Sudeste 0 -- -- 24
2017-11-18 13:00:00 21.8 8 Sudeste 19 Sudeste 0 -- -- 22
2017-11-18 12:00:00 18.9 5 Este 9 Nordeste 0 -- -- 31
2017-11-18 11:00:00 17.5 3 Este 6 Este 0 -- -- 30
2017-11-18 10:00:00 14.6 0 Calma 17 Sudoeste 0 -- -- 34
2017-11-18 09:00:00 9.9 10 Sudoeste 19 Sudoeste 0 -- -- 40
2017-11-18 08:00:00 7.5 11 Sudoeste 18 Sudoeste 0 -- -- 42
2017-11-18 07:00:00 7.5 8 Sudoeste 18 Sudoeste 0 -- -- 41
2017-11-18 06:00:00 7.3 9 Sudoeste 19 Sudoeste 0 -- -- 41
2017-11-18 05:00:00 7.1 13 Sudoeste 17 Sudoeste 0 -- -- 42
2017-11-18 04:00:00 7.3 12 Sudoeste 17 Sudoeste 0 -- -- 43
2017-11-18 03:00:00 7.1 12 Sudoeste 17 Sudoeste 0 -- -- 46
2017-11-18 02:00:00 7.5 10 Sudoeste 19 Sudoeste 0 -- -- 48
2017-11-18 01:00:00 7.4 11 Sudoeste 17 Sudoeste 0 -- -- 51
2017-11-18 00:00:00 7.7 11 Sudoeste 18 Sudoeste 0 -- -- 54
2017-11-17 23:00:00 8.2 11 Sudoeste 19 Sudoeste 0 -- -- 54
2017-11-17 22:00:00 8.7 10 Sudoeste 19 Sudoeste 0 -- -- 55
2017-11-17 21:00:00 9.4 12 Sudoeste 17 Sudoeste 0 -- -- 55
2017-11-17 20:00:00 10.7 9 Sudoeste 15 Sudoeste 0 -- -- 59
2017-11-17 19:00:00 12.1 9 Sudoeste 17 Sudoeste 0 -- -- 53
2017-11-17 18:00:00 13.3 4 Sudoeste 11 Nordeste 0 -- -- 56
2017-11-17 17:00:00 16.1 5 Nordeste 11 Nordeste 0 -- -- 42
2017-11-17 16:00:00 18.3 7 Nordeste 16 Este 0 -- -- 35
2017-11-17 15:00:00 19 7 Nordeste 15 Este 0 -- -- 32
2017-11-17 14:00:00 18.4 8 Este 18 Este 0 -- -- 32
2017-11-17 13:00:00 17 9 Este 15 Este 0 -- -- 36
2017-11-17 12:00:00 16.8 4 Este 7 Este 0 -- -- 37
2017-11-17 11:00:00 13.9 3 Nordeste 10 Este 0 -- -- 45
2017-11-17 10:00:00 11.4 3 Sudoeste 10 Oeste 0 -- -- 49
2017-11-17 09:00:00 7 4 Sudoeste 13 Sudoeste 0 -- -- 60
2017-11-17 08:00:00 5.4 9 Sudoeste 17 Oeste 0 -- -- 65
2017-11-17 07:00:00 5 10 Sudoeste 17 Sudoeste 0 -- -- 67
2017-11-17 06:00:00 5.4 8 Sudoeste 18 Sudoeste 0 -- -- 66
2017-11-17 05:00:00 5.4 11 Sudoeste 19 Sudoeste 0 -- -- 67
2017-11-17 04:00:00 5.8 10 Sudoeste 16 Sudoeste 0 -- -- 69
2017-11-17 03:00:00 5.9 9 Sudoeste 16 Sudoeste 0 -- -- 74
2017-11-17 02:00:00 6 8 Sudoeste 17 Sudoeste 0 -- -- 78
2017-11-17 01:00:00 6.4 8 Sudoeste 18 Sudoeste 0 -- -- 80
2017-11-17 00:00:00 7 11 Sudoeste 19 Sudoeste 0 -- -- 80
2017-11-16 23:00:00 7.3 12 Sudoeste 18 Sudoeste 0 -- -- 82
2017-11-16 22:00:00 8.1 9 Sudoeste 16 Sudoeste 0 -- -- 81
2017-11-16 21:00:00 8.8 8 Sudoeste 14 Oeste 0 -- -- 79
2017-11-16 20:00:00 9.8 7 Sudoeste 14 Sudoeste 0 -- -- 77
2017-11-16 19:00:00 10.9 4 Sudoeste 9 Este 0 -- -- 75
2017-11-16 18:00:00 12.2 6 Nordeste 13 Este 0 -- -- 73
2017-11-16 17:00:00 14.6 6 Nordeste 15 Nordeste 0 -- -- 61
2017-11-16 16:00:00 16.9 8 Nordeste 19 Nordeste 0 -- -- 50
2017-11-16 15:00:00 17.4 9 Nordeste 19 Nordeste 0 -- -- 44
2017-11-16 14:00:00 16.9 11 Nordeste 20 Nordeste 0 -- -- 38
2017-11-16 13:00:00 17 6 Este 14 Este 0 -- -- 38
2017-11-16 12:00:00 15.3 5 Este 10 Este 0 -- -- 39
2017-11-16 11:00:00 14.2 2 Sudeste 8 Nordeste 0 -- -- 36
2017-11-16 10:00:00 11.5 2 Oeste 10 Sudoeste 0 -- -- 40
2017-11-16 09:00:00 6.9 5 Sudoeste 11 Sudoeste 0 -- -- 48
2017-11-16 08:00:00 3.3 0 Calma 15 Oeste 0 -- -- 61
2017-11-16 07:00:00 5.2 10 Sudoeste 16 Sudoeste 0 -- -- 52
2017-11-16 06:00:00 5.4 10 Sudoeste 19 Sudoeste 0 -- -- 51
2017-11-16 05:00:00 5.2 11 Sudoeste 17 Sudoeste 0 -- -- 52
2017-11-16 04:00:00 5.4 7 Sudoeste 16 Sudoeste 0 -- -- 52
2017-11-16 03:00:00 6 11 Sudoeste 17 Sudoeste 0 -- -- 50
2017-11-16 02:00:00 6 9 Sudoeste 19 Sudoeste 0 -- -- 50
2017-11-16 01:00:00 6 9 Sudoeste 17 Sudoeste 0 -- -- 51
2017-11-16 00:00:00 6.9 9 Sudoeste 21 Sudoeste 0 -- -- 50
2017-11-15 23:00:00 7.5 12 Sudoeste 21 Sudoeste 0 -- -- 51
2017-11-15 22:00:00 8.8 14 Sudoeste 22 Sudoeste 0 -- -- 50
2017-11-15 21:00:00 9.5 8 Sudoeste 18 Sudoeste 0 -- -- 53
2017-11-15 20:00:00 10.6 9 Sudoeste 16 Sudoeste 0 -- -- 52
2017-11-15 19:00:00 11.6 8 Sudoeste 17 Sudoeste 0 -- -- 41
2017-11-15 18:00:00 13.6 8 Oeste 12 Sudoeste 0 -- -- 46
2017-11-15 17:00:00 16.7 3 Sudoeste 16 Sudoeste 0 -- -- 35
2017-11-15 16:00:00 19.3 5 Sudoeste 18 Sur 0 -- -- 22
2017-11-15 15:00:00 19.7 8 Sur 19 Sudoeste 0 -- -- 23
2017-11-15 14:00:00 18.8 12 Sudoeste 25 Sur 0 -- -- 26
2017-11-15 13:00:00 17.7 7 Sur 17 Sur 0 -- -- 33
2017-11-15 12:00:00 16.3 8 Sur 18 Sudoeste 0 -- -- 35
2017-11-15 11:00:00 15.1 8 Sudoeste 18 Sudeste 0 -- -- 38
2017-11-15 10:00:00 12.8 5 Sudoeste 12 Sudoeste 0 -- -- 43
2017-11-15 09:00:00 8.4 5 Sudoeste 15 Sudoeste 0 -- -- 59
2017-11-15 08:00:00 4.9 8 Sudoeste 18 Sudoeste 0 -- -- 67
2017-11-15 07:00:00 3.8 11 Sudoeste 19 Oeste 0 -- -- 67
2017-11-15 06:00:00 3.7 10 Sudoeste 17 Sudoeste 0 -- -- 64
2017-11-15 05:00:00 3.6 10 Sudoeste 15 Sudoeste 0 -- -- 69
2017-11-15 04:00:00 3.8 9 Sudoeste 18 Sudoeste 0 -- -- 68
2017-11-15 03:00:00 3.8 10 Sudoeste 19 Sudoeste 0 -- -- 71
2017-11-15 02:00:00 3.8 8 Sudoeste 18 Sudoeste 0 -- -- 74
2017-11-15 01:00:00 4.5 10 Sudoeste 17 Sudoeste 0 -- -- 71
2017-11-15 00:00:00 5.1 9 Sudoeste 17 Sudoeste 0 -- -- 72
2017-11-14 23:00:00 5.5 7 Sudoeste 15 Sudoeste 0 -- -- 69
2017-11-14 22:00:00 6.3 5 Sudoeste 17 Sudoeste 0 -- -- 68
2017-11-14 21:00:00 6.5 8 Sudoeste 14 Sudoeste 0 -- -- 61
2017-11-14 20:00:00 7.2 6 Sudoeste 9 Sudoeste 0 -- -- 54
2017-11-14 19:00:00 8.4 3 Sudeste 7 Este 0 -- -- 48
2017-11-14 18:00:00 10.5 6 Nordeste 14 Nordeste 0 -- -- 41
2017-11-14 17:00:00 13 11 Nordeste 18 Nordeste 0 -- -- 36
2017-11-14 16:00:00 14.9 8 Nordeste 17 Nordeste 0 -- -- 33
2017-11-14 15:00:00 16.3 5 Sudeste 17 Nordeste 0 -- -- 33
2017-11-14 14:00:00 15.1 8 Nordeste 14 Sudeste 0 -- -- 32
2017-11-14 13:00:00 14.4 6 Este 14 Nordeste 0 -- -- 32
2017-11-14 12:00:00 12.6 8 Este 13 Este 0 -- -- 29
2017-11-14 11:00:00 11.1 7 Este 13 Este 0 -- -- 33
2017-11-14 10:00:00 8.1 3 Este 13 Sudoeste 0 -- -- 39
2017-11-14 09:00:00 4.5 7 Sudoeste 14 Sudoeste 0 -- -- 43
2017-11-14 08:00:00 2.2 10 Sudoeste 17 Sudoeste 0 -- -- 48
2017-11-14 07:00:00 1.9 3 Sudoeste 21 Sudoeste 0 -- -- 50
2017-11-14 06:00:00 2.3 9 Sudoeste 17 Sudoeste 0 -- -- 49
2017-11-14 05:00:00 2.3 8 Sudoeste 14 Sudoeste 0 -- -- 49
2017-11-14 04:00:00 2.9 7 Sudoeste 15 Oeste 0 -- -- 47
2017-11-14 03:00:00 2.9 4 Sudoeste 17 Sudoeste 0 -- -- 46
2017-11-14 02:00:00 3.2 6 Sudoeste 15 Sudoeste 0 -- -- 45
2017-11-14 01:00:00 3.6 8 Sudoeste 14 Oeste 0 -- -- 44
2017-11-14 00:00:00 4.6 7 Sudoeste 13 Sur 0 -- -- 42
2017-11-13 23:00:00 5.4 5 Sudoeste 11 Sudoeste 0 -- -- 41
2017-11-13 22:00:00 6.4 3 Noroeste 12 Sudoeste 0 -- -- 39
2017-11-13 21:00:00 8.3 3 Sudoeste 19 Nordeste 0 -- -- 33
2017-11-13 20:00:00 10.5 12 Nordeste 32 Nordeste 0 -- -- 27
2017-11-13 19:00:00 11.1 10 Norte 28 Nordeste 0 -- -- 28
2017-11-13 18:00:00 11.5 5 Nordeste 31 Nordeste 0 -- -- 29
2017-11-13 17:00:00 12.8 12 Norte 33 Nordeste 0 -- -- 29
2017-11-13 16:00:00 14.9 14 Nordeste 33 Nordeste 0 -- -- 27
2017-11-13 15:00:00 16 11 Norte 33 Norte 0 -- -- 27
2017-11-13 14:00:00 16.8 9 Noroeste 33 Nordeste 0 -- -- 26
2017-11-13 13:00:00 16.3 12 Norte 33 Noroeste 0 -- -- 28
2017-11-13 12:00:00 16.3 9 Norte 32 Oeste 0 -- -- 37
2017-11-13 11:00:00 15.4 12 Norte 26 Noroeste 0 -- -- 40
2017-11-13 10:00:00 14.8 8 Norte 28 Oeste 0 -- -- 44
2017-11-13 09:00:00 13.4 9 Oeste 28 Oeste 0 -- -- 47
2017-11-13 08:00:00 10.9 7 Sudoeste 23 Oeste 0 -- -- 55
2017-11-13 07:00:00 12.4 9 Oeste 34 Oeste 0 -- -- 48
2017-11-13 06:00:00 12.5 9 Sudoeste 24 Oeste 0 -- -- 48
2017-11-13 05:00:00 12.3 12 Sudoeste 30 Oeste 0 -- -- 49
2017-11-13 04:00:00 12.9 15 Oeste 22 Oeste 0 -- -- 47
2017-11-13 03:00:00 13 5 Sur 20 Sudeste 0 -- -- 47
2017-11-13 02:00:00 12.8 5 Sudoeste 19 Oeste 0 -- -- 45
2017-11-13 01:00:00 13.1 5 Oeste 19 Oeste 0 -- -- 44
2017-11-13 00:00:00 13.9 14 Oeste 21 Oeste 0 -- -- 40
2017-11-12 23:00:00 13.2 9 Sudoeste 19 Sudoeste 0 -- -- 43
2017-11-12 22:00:00 13.7 8 Sudoeste 18 Sudoeste 0 -- -- 41
2017-11-12 21:00:00 15.7 12 Oeste 26 Oeste 0 -- -- 37
2017-11-12 20:00:00 15.4 11 Oeste 18 Sudoeste 0 -- -- 37
2017-11-12 19:00:00 17 13 Sudoeste 26 Oeste 0 -- -- 32
2017-11-12 18:00:00 17.3 7 Sudoeste 13 Sudoeste 0 -- -- 30
2017-11-12 17:00:00 20.3 8 Oeste 17 Oeste 0 -- -- 23
2017-11-12 16:00:00 23.7 7 Noroeste 17 Noroeste 0 -- -- 22
2017-11-12 15:00:00 22.6 5 Nordeste 17 Nordeste 0 -- -- 23
2017-11-12 14:00:00 22.3 6 Este 13 Este 0 -- -- 28
2017-11-12 13:00:00 21 5 Sudeste 12 Este 0 -- -- 31
2017-11-12 12:00:00 19.2 7 Este 13 Este 0 -- -- 34
2017-11-12 11:00:00 16.8 4 Nordeste 12 Nordeste 0 -- -- 42
2017-11-12 10:00:00 15.2 0 Calma 11 Sudoeste 0 -- -- 45
2017-11-12 09:00:00 10.3 5 Sudoeste 18 Sudoeste 0 -- -- 56
2017-11-12 08:00:00 7.9 8 Sudoeste 17 Sudoeste 0 -- -- 65
2017-11-12 07:00:00 8 9 Sudoeste 15 Sudoeste 0 -- -- 65
2017-11-12 06:00:00 8.8 9 Sudoeste 16 Sudoeste 0 -- -- 64
2017-11-12 05:00:00 8.8 3 Sudoeste 17 Sudoeste 0 -- -- 65
2017-11-12 04:00:00 9.5 10 Sudoeste 22 Sudoeste 0 -- -- 63
2017-11-12 03:00:00 8.8 14 Sudoeste 21 Sudoeste 0 -- -- 66
2017-11-12 02:00:00 9.4 11 Sudoeste 19 Sudoeste 0 -- -- 64
2017-11-12 01:00:00 9.6 9 Sudoeste 15 Sudoeste 0 -- -- 63
2017-11-12 00:00:00 10.4 10 Sudoeste 17 Sudoeste 0 -- -- 60
2017-11-11 23:00:00 11.9 9 Sudoeste 15 Sudoeste 0 -- -- 57
2017-11-11 22:00:00 12.5 9 Sudoeste 14 Sudoeste 0 -- -- 55
2017-11-11 21:00:00 13.1 6 Sudoeste 17 Sur 0 -- -- 53
2017-11-11 20:00:00 13.1 10 Sudoeste 18 Sur 0 -- -- 51
2017-11-11 19:00:00 13.2 11 Sudoeste 17 Sudoeste 0 -- -- 49
2017-11-11 18:00:00 14.5 5 Oeste 9 Sudoeste 0 -- -- 46
2017-11-11 17:00:00 17.7 4 Este 14 Este 0 -- -- 37
2017-11-11 16:00:00 19.3 7 Nordeste 24 Este 0 -- -- 34
2017-11-11 15:00:00 19.5 10 Nordeste 19 Nordeste 0 -- -- 34
2017-11-11 14:00:00 19.3 7 Este 20 Este 0 -- -- 35
2017-11-11 13:00:00 18.6 10 Este 19 Este 0 -- -- 37
2017-11-11 12:00:00 17.3 9 Este 20 Este 0 -- -- 41
2017-11-11 11:00:00 16.8 4 Este 10 Este 0 -- -- 43
2017-11-11 10:00:00 13.9 2 Sudeste 18 Sudoeste 0 -- -- 51
2017-11-11 09:00:00 9.4 9 Sudoeste 17 Sudoeste 0 -- -- 65
2017-11-11 08:00:00 8.1 8 Sudoeste 14 Sudoeste 0 -- -- 70
2017-11-11 07:00:00 8.5 5 Sudoeste 17 Sur 0 -- -- 68
2017-11-11 06:00:00 9.1 11 Sudoeste 18 Sudoeste 0 -- -- 66
2017-11-11 05:00:00 7.7 9 Sudoeste 18 Sudoeste 0 -- -- 69
2017-11-11 04:00:00 7.2 5 Sudoeste 13 Sudoeste 0 -- -- 68
2017-11-11 03:00:00 7.6 7 Sudoeste 17 Sudoeste 0 -- -- 64
2017-11-11 02:00:00 7.4 11 Sudoeste 17 Sudoeste 0 -- -- 62
2017-11-11 01:00:00 7.6 8 Sudoeste 18 Sudoeste 0 -- -- 58
2017-11-11 00:00:00 7.6 12 Sudoeste 22 Sudoeste 0 -- -- 54
2017-11-10 23:00:00 7.8 10 Sudoeste 21 Sudoeste 0 -- -- 52
2017-11-10 22:00:00 8.2 9 Sudoeste 16 Sudoeste 0 -- -- 50
2017-11-10 21:00:00 9 5 Sudoeste 13 Sudoeste 0 -- -- 48
2017-11-10 20:00:00 9.9 7 Sudoeste 15 Sudoeste 0 -- -- 44
2017-11-10 19:00:00 10.6 9 Sudoeste 12 Sudoeste 0 -- -- 42
2017-11-10 18:00:00 11.6 4 Oeste 10 Nordeste 0 -- -- 39
2017-11-10 17:00:00 14.2 6 Nordeste 14 Nordeste 0 -- -- 32
2017-11-10 16:00:00 15.3 9 Norte 28 Nordeste 0 -- -- 29
2017-11-10 15:00:00 15.8 12 Nordeste 23 Nordeste 0 -- -- 29
2017-11-10 14:00:00 16 12 Este 22 Este 0 -- -- 32
2017-11-10 13:00:00 15.2 8 Este 17 Este 0 -- -- 36
2017-11-10 12:00:00 14.3 6 Este 13 Nordeste 0 -- -- 38
2017-11-10 11:00:00 12.9 5 Este 9 Nordeste 0 -- -- 41
2017-11-10 10:00:00 11 0 Calma 9 Sudoeste 0 -- -- 48
2017-11-10 09:00:00 5.7 6 Sudoeste 12 Sudoeste 0 -- -- 63
2017-11-10 08:00:00 3.2 7 Sudoeste 13 Sudoeste 0 -- -- 71
2017-11-10 07:00:00 3.3 9 Sudoeste 17 Sudoeste 0 -- -- 71
2017-11-10 06:00:00 3.5 9 Sudoeste 14 Sudoeste 0 -- -- 69
2017-11-10 05:00:00 3.7 7 Sudoeste 14 Sudoeste 0 -- -- 68
2017-11-10 04:00:00 4.2 9 Sudoeste 14 Sudoeste 0 -- -- 66
2017-11-10 03:00:00 5 8 Sudoeste 15 Sudoeste 0 -- -- 64
2017-11-10 02:00:00 5.8 8 Sudoeste 13 Sudoeste 0 -- -- 61
2017-11-10 01:00:00 7.1 3 Sudoeste 9 Sudeste 0 -- -- 57
2017-11-10 00:00:00 8.1 4 Sudeste 18 Norte 0 -- -- 53
2017-11-09 23:00:00 9.7 11 Norte 21 Norte 0 -- -- 48
2017-11-09 22:00:00 8.4 4 Sudoeste 13 Sur 0 -- -- 52
2017-11-09 21:00:00 7.5 6 Sur 17 Sur 0 -- -- 53
2017-11-09 20:00:00 7.3 10 Sudoeste 17 Sudoeste 0 -- -- 54
2017-11-09 19:00:00 8.6 7 Sudoeste 12 Sudoeste 0 -- -- 51
2017-11-09 18:00:00 9.5 3 Sudoeste 6 Sur 0 -- -- 48
2017-11-09 17:00:00 12.2 2 Nordeste 12 Nordeste 0 -- -- 40
2017-11-09 16:00:00 13.7 6 Norte 16 Este 0 -- -- 37
2017-11-09 15:00:00 13.1 6 Nordeste 16 Nordeste 0 -- -- 39
2017-11-09 14:00:00 12.3 5 Norte 18 Nordeste 0 -- -- 39
2017-11-09 13:00:00 12.2 11 Nordeste 21 Nordeste 0 -- -- 39
2017-11-09 12:00:00 12.3 11 Nordeste 28 Nordeste 0 -- -- 38
2017-11-09 11:00:00 11.1 13 Nordeste 24 Nordeste 0 -- -- 41
2017-11-09 10:00:00 10 9 Nordeste 23 Nordeste 0 -- -- 44
2017-11-09 09:00:00 7.3 0 Calma 13 Sudoeste 0 -- -- 58
2017-11-09 08:00:00 3.9 7 Sudoeste 12 Sudoeste 0 -- -- 66
2017-11-09 07:00:00 4.9 6 Sudoeste 10 Sudoeste 0 -- -- 65
2017-11-09 06:00:00 5.2 3 Sudoeste 8 Noroeste 0 -- -- 70
2017-11-09 05:00:00 6.7 0 Calma 12 Este 0 -- -- 62
2017-11-09 04:00:00 7.4 6 Nordeste 13 Nordeste 0 -- -- 68
2017-11-09 03:00:00 8.3 3 Sudoeste 5 Sur 0 -- -- 76
2017-11-09 02:00:00 8.2 4 Sur 6 Sur 0 -- -- 74
2017-11-09 01:00:00 7.8 4 Este 9 Sudoeste 0 -- -- 71
2017-11-09 00:00:00 8.4 5 Sudoeste 14 Sudoeste 0 -- -- 66
2017-11-08 23:00:00 9.2 8 Sudoeste 14 Sudoeste 0 -- -- 61
2017-11-08 22:00:00 9.9 4 Sudoeste 7 Sudoeste 0 -- -- 61
2017-11-08 21:00:00 11.1 3 Oeste 8 Sudoeste 0 -- -- 61
2017-11-08 20:00:00 11.6 2 Oeste 5 Sudoeste 0 -- -- 63
2017-11-08 19:00:00 12.2 0 Calma 8 Norte 0 -- -- 57
2017-11-08 18:00:00 14.3 3 Noroeste 11 Noroeste 0 -- -- 40
2017-11-08 17:00:00 15.7 4 Este 17 Norte 0 -- -- 39
2017-11-08 16:00:00 17.3 5 Norte 19 Oeste 0 -- -- 37
2017-11-08 15:00:00 17.9 5 Este 17 Este 0 -- -- 37
2017-11-08 14:00:00 18.1 5 Nordeste 17 Este 0 -- -- 36
2017-11-08 13:00:00 17.3 9 Nordeste 18 Este 0 -- -- 37
2017-11-08 12:00:00 17 6 Este 14 Este 0 -- -- 37
2017-11-08 11:00:00 15.6 5 Este 11 Este 0 -- -- 37
2017-11-08 10:00:00 14.4 2 Oeste 12 Sudoeste 0 -- -- 41
2017-11-08 09:00:00 8.9 8 Sudoeste 18 Sudoeste 0 -- -- 53
2017-11-08 08:00:00 6.6 7 Sudoeste 12 Sudoeste 0 -- -- 60
2017-11-08 07:00:00 6.8 7 Sudoeste 16 Sudoeste 0 -- -- 58
2017-11-08 06:00:00 8.2 10 Sudoeste 17 Sudoeste 0 -- -- 54
2017-11-08 05:00:00 9.8 11 Sudoeste 20 Sudoeste 0 -- -- 49
2017-11-08 04:00:00 8.7 9 Sudoeste 17 Sudoeste 0 -- -- 53
2017-11-08 03:00:00 7.9 5 Sudoeste 17 Sudoeste 0 -- -- 55
2017-11-08 02:00:00 7.8 7 Sudoeste 15 Sudoeste 0 -- -- 56
2017-11-08 01:00:00 8.9 9 Sudoeste 14 Sudoeste 0 -- -- 53
2017-11-08 00:00:00 9.5 6 Sudoeste 17 Sudoeste 0 -- -- 51
2017-11-07 23:00:00 10.3 8 Sudoeste 18 Sur 0 -- -- 49
2017-11-07 22:00:00 10.8 6 Sudoeste 14 Sudoeste 0 -- -- 46
2017-11-07 21:00:00 11.1 8 Sudoeste 14 Sur 0 -- -- 41
2017-11-07 20:00:00 11 6 Sudoeste 14 Sudoeste 0 -- -- 35
2017-11-07 19:00:00 11.4 6 Sudoeste 12 Sudoeste 0 -- -- 30
2017-11-07 18:00:00 13 5 Sudoeste 16 Oeste 0 -- -- 28
2017-11-07 17:00:00 15.8 9 Oeste 18 Sudoeste 0 -- -- 23
2017-11-07 16:00:00 18.1 6 Oeste 21 Sudoeste 0 -- -- 19
2017-11-07 15:00:00 17.3 6 Sur 18 Sudoeste 0 -- -- 21
2017-11-07 14:00:00 17 7 Sudoeste 20 Sudeste 0 -- -- 22
2017-11-07 13:00:00 15.8 7 Sudoeste 26 Sur 0 -- -- 28
2017-11-07 12:00:00 14.2 6 Este 14 Sudeste 0 -- -- 29
2017-11-07 11:00:00 11.8 6 Este 11 Sudeste 0 -- -- 38
2017-11-07 10:00:00 10.4 4 Sudeste 10 Sudeste 0 -- -- 42
2017-11-07 09:00:00 6.5 4 Sudoeste 13 Sudoeste 0 -- -- 54
2017-11-07 08:00:00 4.4 6 Sudoeste 13 Sudoeste 0 -- -- 60
2017-11-07 07:00:00 4.6 8 Sudoeste 15 Sudoeste 0 -- -- 60
2017-11-07 06:00:00 5.2 6 Sudoeste 18 Oeste 0 -- -- 58
2017-11-07 05:00:00 5.3 6 Sur 14 Oeste 0 -- -- 59
2017-11-07 04:00:00 5.8 8 Sudoeste 15 Sudoeste 0 -- -- 57
2017-11-07 03:00:00 7.1 7 Oeste 11 Oeste 0 -- -- 53
2017-11-07 02:00:00 8 6 Oeste 17 Oeste 0 -- -- 50
2017-11-07 01:00:00 8.7 8 Noroeste 19 Noroeste 0 -- -- 47
2017-11-07 00:00:00 9.5 8 Noroeste 21 Noroeste 0 -- -- 45
2017-11-06 23:00:00 10.1 10 Noroeste 26 Noroeste 0 -- -- 43
2017-11-06 22:00:00 7.5 8 Sudoeste 15 Sudoeste 0 -- -- 52
2017-11-06 21:00:00 8.2 7 Sudoeste 14 Oeste 0 -- -- 49
2017-11-06 20:00:00 9.5 8 Sudoeste 13 Sudoeste 0 -- -- 46
2017-11-06 19:00:00 10.2 2 Sur 8 Oeste 0 -- -- 45
2017-11-06 18:00:00 12.5 7 Nordeste 16 Nordeste 0 -- -- 37
2017-11-06 17:00:00 14.5 5 Noroeste 18 Noroeste 0 -- -- 34
2017-11-06 16:00:00 14.8 11 Noroeste 26 Noroeste 0 -- -- 35
2017-11-06 15:00:00 16.5 6 Nordeste 23 Oeste 0 -- -- 32
2017-11-06 14:00:00 16 5 Norte 30 Noroeste 0 -- -- 33
2017-11-06 13:00:00 15.9 9 Noroeste 27 Noroeste 0 -- -- 33
2017-11-06 12:00:00 15.2 11 Noroeste 25 Noroeste 0 -- -- 36
2017-11-06 11:00:00 14.5 6 Norte 27 Noroeste 0 -- -- 39
2017-11-06 10:00:00 12.8 11 Noroeste 31 Noroeste 0 -- -- 43
2017-11-06 09:00:00 10.7 8 Noroeste 28 Oeste 0 -- -- 50
2017-11-06 08:00:00 8.4 17 Oeste 23 Oeste 0 -- -- 58
2017-11-06 07:00:00 7.7 4 Sur 17 Sur 0 -- -- 61
2017-11-06 06:00:00 8.8 6 Sudoeste 18 Oeste 0 -- -- 57
2017-11-06 05:00:00 9.6 8 Oeste 28 Oeste 0 -- -- 53
2017-11-06 04:00:00 9.9 5 Oeste 32 Oeste 0 -- -- 52
2017-11-06 03:00:00 10.6 6 Noroeste 22 Norte 0 -- -- 50
2017-11-06 02:00:00 11.3 6 Noroeste 24 Noroeste 0 -- -- 47
2017-11-06 01:00:00 12.3 12 Noroeste 33 Norte 0 -- -- 44
2017-11-06 00:00:00 11.9 6 Noroeste 21 Norte 0 -- -- 44
2017-11-05 23:00:00 11.9 8 Oeste 22 Norte 0 -- -- 43
2017-11-05 22:00:00 12.7 8 Nordeste 17 Nordeste 0 -- -- 42
2017-11-05 21:00:00 13.2 5 Norte 20 Nordeste 0 -- -- 40
2017-11-05 20:00:00 14.3 9 Nordeste 24 Nordeste 0 -- -- 37
2017-11-05 19:00:00 15.4 12 Norte 30 Norte 0 -- -- 34
2017-11-05 18:00:00 16.6 14 Norte 28 Norte 0 -- -- 35
2017-11-05 17:00:00 18.9 5 Noroeste 23 Norte 0 -- -- 34
2017-11-05 16:00:00 20.8 11 Noroeste 28 Noroeste 0 -- -- 32
2017-11-05 15:00:00 20.5 12 Noroeste 29 Noroeste 0 -- -- 32
2017-11-05 14:00:00 21.2 10 Noroeste 32 Oeste 0 -- -- 31
2017-11-05 13:00:00 20.9 9 Oeste 22 Oeste 0 -- -- 37
2017-11-05 12:00:00 18.7 6 Sur 22 Noroeste 0 -- -- 44
2017-11-05 11:00:00 18 13 Oeste 36 Oeste 0 -- -- 48
2017-11-05 10:00:00 16.5 9 Noroeste 26 Oeste 0 -- -- 53
2017-11-05 09:00:00 14.7 7 Sudoeste 18 Sudoeste 0 -- -- 66
2017-11-05 08:00:00 12.5 9 Sudoeste 22 Oeste 0 -- -- 76
2017-11-05 07:00:00 13.2 12 Oeste 29 Oeste 0 -- -- 71
2017-11-05 06:00:00 12.9 14 Oeste 24 Oeste 0 -- -- 75
2017-11-05 05:00:00 13.1 12 Oeste 31 Sudoeste 0 -- -- 72
2017-11-05 04:00:00 13 16 Oeste 33 Sudoeste 0 -- -- 73
2017-11-05 03:00:00 13.1 15 Sudoeste 33 Sudoeste 0 -- -- 75
2017-11-05 02:00:00 13.1 12 Sudoeste 27 Sudoeste 0 -- -- 74
2017-11-05 01:00:00 13.3 11 Sudoeste 28 Oeste 0 -- -- 73
2017-11-05 00:00:00 13.1 8 Oeste 21 Sudoeste 0 -- -- 73
2017-11-04 23:00:00 13.6 5 Sudoeste 19 Oeste 0 -- -- 70
2017-11-04 22:00:00 14.1 7 Sudoeste 25 Sudoeste 0 -- -- 66
2017-11-04 21:00:00 14.7 10 Sudoeste 17 Sudoeste 0 -- -- 63
2017-11-04 20:00:00 15.4 8 Oeste 18 Noroeste 0 -- -- 58
2017-11-04 19:00:00 15.6 7 Oeste 17 Sudoeste 0 -- -- 56
2017-11-04 18:00:00 16.9 12 Sudoeste 26 Sudoeste 0 -- -- 52
2017-11-04 17:00:00 18.2 15 Sudoeste 37 Sudoeste 0 -- -- 46
2017-11-04 16:00:00 20 8 Oeste 25 Sudoeste 0 -- -- 45
2017-11-04 15:00:00 17 14 Sudoeste 35 Oeste 0 -- -- 60
2017-11-04 14:00:00 19.9 16 Oeste 30 Oeste 0 -- -- 47
2017-11-04 13:00:00 21.2 7 Sudoeste 18 Sudoeste 0 -- -- 42
2017-11-04 12:00:00 20.4 4 Este 13 Este 0 -- -- 50
2017-11-04 11:00:00 20.7 6 Este 13 Nordeste 0 -- -- 52
2017-11-04 10:00:00 18.7 5 Nordeste 12 Sudoeste 0 -- -- 60
2017-11-04 09:00:00 14.9 6 Sudoeste 18 Oeste 0 -- -- 70
2017-11-04 08:00:00 12.4 13 Sudoeste 19 Sudoeste 0 -- -- 80
2017-11-04 07:00:00 12.9 11 Sudoeste 17 Sudoeste 0 -- -- 82
2017-11-04 06:00:00 12.7 6 Oeste 10 Sudoeste 0 -- -- 85
2017-11-04 05:00:00 13.5 6 Sudoeste 10 Sudoeste 0 -- -- 83
2017-11-04 04:00:00 13.3 5 Oeste 8 Noroeste 0 -- -- 84
2017-11-04 03:00:00 13.5 4 Este 10 Este 0 -- -- 81
2017-11-04 02:00:00 14.2 4 Sudoeste 10 Oeste 0 -- -- 78
2017-11-04 01:00:00 14.3 5 Sur 11 Sudoeste 0 -- -- 76
2017-11-04 00:00:00 14.4 3 Noroeste 15 Oeste 0 -- -- 77
2017-11-03 23:00:00 14.7 9 Sudoeste 14 Sudoeste 0 -- -- 77
2017-11-03 22:00:00 15.3 3 Sudoeste 13 Sudoeste 0 -- -- 76
2017-11-03 21:00:00 15.9 9 Sudoeste 15 Sudoeste 0 -- -- 74
2017-11-03 20:00:00 16.3 8 Sudoeste 13 Sudoeste 0 -- -- 75
2017-11-03 19:00:00 16.7 4 Oeste 9 Sudoeste 0 -- -- 66
2017-11-03 18:00:00 17.9 0 Calma 4 Sudoeste 0 -- -- 61
2017-11-03 17:00:00 20.5 3 Nordeste 12 Nordeste 0 -- -- 49
2017-11-03 16:00:00 22.5 4 Nordeste 11 Este 0 -- -- 47
2017-11-03 15:00:00 21.3 6 Este 12 Este 0 -- -- 51
2017-11-03 14:00:00 21 6 Este 12 Nordeste 0 -- -- 53
2017-11-03 13:00:00 19.3 7 Este 17 Este 0 -- -- 60
2017-11-03 12:00:00 18.1 4 Este 11 Este 0 -- -- 63
2017-11-03 11:00:00 15.2 5 Este 9 Nordeste 0 -- -- 73
2017-11-03 10:00:00 13.4 5 Norte 13 Oeste 0 -- -- 76
2017-11-03 09:00:00 11.3 3 Este 8 Sudoeste 0 -- -- 78
2017-11-03 08:00:00 9.7 3 Sudoeste 10 Oeste 0 -- -- 83
2017-11-03 07:00:00 9 5 Sudoeste 17 Sudoeste 0 -- -- 86
2017-11-03 06:00:00 8.8 9 Sudoeste 15 Sudoeste 0 -- -- 86
2017-11-03 05:00:00 9.4 8 Sudoeste 14 Sudoeste 0 -- -- 86
2017-11-03 04:00:00 9.4 5 Sudoeste 13 Sudoeste 0 -- -- 84
2017-11-03 03:00:00 10 9 Sudoeste 18 Sudoeste 0 -- -- 83
2017-11-03 02:00:00 10.4 11 Sudoeste 16 Sudoeste 0 -- -- 82
2017-11-03 01:00:00 10.7 7 Sudoeste 14 Sudoeste 0 -- -- 83
2017-11-03 00:00:00 11.2 8 Sudoeste 16 Sudoeste 0 -- -- 83
2017-11-02 23:00:00 11.7 9 Sudoeste 17 Sudoeste 0 -- -- 83
2017-11-02 22:00:00 12.5 5 Sudoeste 10 Oeste 0 -- -- 84
2017-11-02 21:00:00 13.8 8 Sudoeste 13 Sudoeste 0 -- -- 80
2017-11-02 20:00:00 14.6 5 Sudoeste 13 Sur 0 -- -- 79
2017-11-02 19:00:00 15.7 5 Sudoeste 19 Sur 0 -- -- 76
2017-11-02 18:00:00 17 10 Sudoeste 22 Sur 0 -- -- 71
2017-11-02 17:00:00 19.2 9 Sur 21 Sudoeste 0 -- -- 61
2017-11-02 16:00:00 20.2 8 Sur 27 Sur 0 -- -- 57
2017-11-02 15:00:00 20.7 12 Sur 23 Sur 0 -- -- 56
2017-11-02 14:00:00 22.6 9 Sudoeste 22 Sur 0 -- -- 48
2017-11-02 13:00:00 22.8 6 Sudoeste 14 Sudoeste 0 -- -- 45
2017-11-02 12:00:00 21.2 4 Norte 12 Este 0 -- -- 47
2017-11-02 11:00:00 18.2 4 Norte 9 Este 0 -- -- 61
2017-11-02 10:00:00 15.7 5 Este 10 Sudoeste 0 -- -- 68
2017-11-02 09:00:00 12.3 7 Sudoeste 14 Sudoeste 0 -- -- 77
2017-11-02 08:00:00 10.1 8 Sudoeste 15 Oeste 0 -- -- 82
2017-11-02 07:00:00 10.1 8 Oeste 14 Sudoeste 0 -- -- 83
2017-11-02 06:00:00 10.7 9 Oeste 16 Sudoeste 0 -- -- 80
2017-11-02 05:00:00 10.6 10 Sudoeste 15 Oeste 0 -- -- 81
2017-11-02 04:00:00 10.8 8 Sudoeste 15 Sudoeste 0 -- -- 84
2017-11-02 03:00:00 11.8 11 Sudoeste 14 Sudoeste 0 -- -- 85
2017-11-02 02:00:00 12.1 9 Sudoeste 14 Sudoeste 0 -- -- 85
2017-11-02 01:00:00 12.7 8 Sudoeste 15 Sudoeste 0 -- -- 84
2017-11-02 00:00:00 12.8 9 Sudoeste 15 Sudoeste 0 -- -- 82
2017-11-01 23:00:00 13.2 8 Sudoeste 15 Sudoeste 0 -- -- 80
2017-11-01 22:00:00 13.5 5 Sudoeste 13 Sudoeste 0 -- -- 80
2017-11-01 21:00:00 13.8 9 Sudoeste 15 Sudoeste 0 -- -- 79
2017-11-01 20:00:00 14.6 4 Sudoeste 21 Sudoeste 0 -- -- 75
2017-11-01 19:00:00 15.9 6 Sur 22 Sur 0 -- -- 72
2017-11-01 18:00:00 16.6 12 Sur 27 Sudoeste 0 -- -- 71
2017-11-01 17:00:00 18.5 14 Sudoeste 28 Sur 0 -- -- 62
2017-11-01 16:00:00 20.3 12 Sur 29 Sudoeste 0 -- -- 56
2017-11-01 15:00:00 21.4 13 Sur 30 Sur 0 -- -- 54
2017-11-01 14:00:00 20.9 10 Sur 24 Sur 0 -- -- 56
2017-11-01 13:00:00 19.6 8 Sur 22 Sur 0 -- -- 59
2017-11-01 12:00:00 20.9 4 Sudeste 10 Este 0 -- -- 55
2017-11-01 11:00:00 19.2 3 Norte 7 Noroeste 0 -- -- 63
2017-11-01 10:00:00 18.1 0 Calma 10 Sudoeste 0 -- -- 67
2017-11-01 09:00:00 13.6 8 Sudoeste 14 Sudoeste 0 -- -- 84
2017-11-01 08:00:00 11.6 3 Sudoeste 6 Sudoeste 0 -- -- 91
2017-11-01 07:00:00 11.4 3 Sudoeste 6 Sur 0 -- -- 91
2017-11-01 06:00:00 11.9 5 Sudoeste 11 Sudoeste 0 -- -- 88
2017-11-01 05:00:00 12.2 3 Sudoeste 13 Sudoeste 0 -- -- 87
2017-11-01 04:00:00 11.4 9 Sudoeste 15 Sudoeste 0 -- -- 90
2017-11-01 03:00:00 11.2 4 Sudoeste 15 Sudoeste 0 -- -- 92
2017-11-01 02:00:00 11.8 5 Sudoeste 12 Sudoeste 0 -- -- 92
2017-11-01 01:00:00 11.9 4 Sudoeste 11 Sudoeste 0 -- -- 91
2017-11-01 00:00:00 12.1 0 Calma 9 Oeste 0 -- -- 94
2017-10-31 23:00:00 12.5 2 Sudoeste 5 Sur 0 -- -- 95
2017-10-31 22:00:00 13.4 0 Calma 7 Este 0 -- -- 93
2017-10-31 21:00:00 14.1 3 Este 8 Nordeste 0 -- -- 91
2017-10-31 20:00:00 14.9 5 Nordeste 12 Nordeste 0 -- -- 87
2017-10-31 19:00:00 14.5 4 Este 13 Nordeste 0 -- -- 86
2017-10-31 18:00:00 15.8 9 Nordeste 20 Nordeste 0 -- -- 79
2017-10-31 17:00:00 16.7 8 Nordeste 17 Nordeste 0 -- -- 71
2017-10-31 16:00:00 18.3 9 Nordeste 19 Nordeste 0 -- -- 67
2017-10-31 15:00:00 19.1 13 Nordeste 24 Nordeste 0 -- -- 63
2017-10-31 14:00:00 20.1 11 Nordeste 21 Nordeste 0 -- -- 57
2017-10-31 13:00:00 19.1 10 Nordeste 18 Nordeste 0 -- -- 62
2017-10-31 12:00:00 18.2 12 Nordeste 24 Nordeste 0 -- -- 69
2017-10-31 11:00:00 17.3 6 Este 13 Este 0 -- -- 77
2017-10-31 10:00:00 14.5 3 Nordeste 8 Nordeste 0 -- -- 88
2017-10-31 09:00:00 14.1 0 Calma 3 Sudoeste 0 -- -- 91
2017-10-31 08:00:00 11.2 0 Calma 4 Sudoeste 0 -- -- 96
2017-10-31 07:00:00 11.2 0 Calma 8 Sudoeste 0 -- -- 95
2017-10-31 06:00:00 11.9 3 Sudoeste 6 Sudoeste 0 -- -- 93
2017-10-31 05:00:00 11.6 5 Sudoeste 11 Sudoeste 0 -- -- 94
2017-10-31 04:00:00 11.8 6 Sudoeste 9 Sudoeste 0 -- -- 93
2017-10-31 03:00:00 11.1 0 Calma 8 Sudoeste 0 -- -- 94
2017-10-31 02:00:00 11.8 3 Sudoeste 7 Nordeste 0 -- -- 95
2017-10-31 01:00:00 12.9 2 Sudoeste 10 Sudoeste 0 -- -- 89
2017-10-31 00:00:00 13.3 6 Sudoeste 10 Sudoeste 0 -- -- 87
2017-10-30 23:00:00 12.3 0 Calma 10 Sudoeste 0 -- -- 93
2017-10-30 22:00:00 13.3 6 Sudoeste 11 Sudoeste 0 -- -- 87
2017-10-30 21:00:00 13.7 5 Sudoeste 8 Sudoeste 0 -- -- 88
2017-10-30 20:00:00 13.5 0 Calma 8 Este 0 -- -- 93
2017-10-30 19:00:00 14.8 4 Este 7 Nordeste 0 -- -- 86
2017-10-30 18:00:00 16.9 4 Este 12 Nordeste 0 -- -- 76
2017-10-30 17:00:00 18.6 4 Nordeste 14 Nordeste 0 -- -- 69
2017-10-30 16:00:00 19.4 8 Nordeste 15 Nordeste 0 -- -- 64
2017-10-30 15:00:00 20.1 8 Nordeste 15 Este 0 -- -- 61
2017-10-30 14:00:00 22.3 7 Nordeste 16 Este 0 -- -- 53
2017-10-30 13:00:00 21 7 Este 17 Este 0 -- -- 58
2017-10-30 12:00:00 19.7 9 Nordeste 17 Este 0 -- -- 62
2017-10-30 11:00:00 18.2 5 Nordeste 9 Este 0 -- -- 66
2017-10-30 10:00:00 16.5 4 Este 8 Sudoeste 0 -- -- 71
2017-10-30 09:00:00 12.6 5 Sudoeste 11 Sudoeste 0 -- -- 77
2017-10-30 08:00:00 10 6 Oeste 15 Sudoeste 0 -- -- 86
2017-10-30 07:00:00 10.3 9 Sudoeste 13 Sudoeste 0 -- -- 86
2017-10-30 06:00:00 10.6 9 Sudoeste 14 Sudoeste 0 -- -- 86
2017-10-30 05:00:00 10.9 5 Sudoeste 21 Sudoeste 0 -- -- 86
2017-10-30 04:00:00 11.6 10 Sudoeste 16 Sudoeste 0 -- -- 85
2017-10-30 03:00:00 12.1 11 Sudoeste 17 Sudoeste 0 -- -- 85
2017-10-30 02:00:00 12.3 9 Sudoeste 14 Sudoeste 0 -- -- 85
2017-10-30 01:00:00 13.1 5 Sudoeste 17 Sudoeste 0 -- -- 83
2017-10-30 00:00:00 13.5 11 Sudoeste 18 Sudoeste 0 -- -- 82
2017-10-29 23:00:00 13.9 8 Sudoeste 17 Sudoeste 0 -- -- 82
2017-10-29 22:00:00 14.5 5 Sudoeste 11 Sudoeste 0 -- -- 80
2017-10-29 21:00:00 15.3 9 Sudoeste 15 Sudoeste 0 -- -- 78
2017-10-29 20:00:00 15.7 6 Sudoeste 18 Sudoeste 0 -- -- 77
2017-10-29 19:00:00 16.6 7 Sudoeste 14 Sudoeste 0 -- -- 74
2017-10-29 18:00:00 18 4 Oeste 18 Sur 0 -- -- 69
2017-10-29 17:00:00 20.7 8 Sur 23 Sur 0 -- -- 57
2017-10-29 16:00:00 23.3 9 Sur 19 Sur 0 -- -- 46
2017-10-29 15:00:00 21.8 2 Nordeste 12 Sudeste 0 -- -- 48
2017-10-29 14:00:00 21.1 6 Noroeste 10 Noroeste 0 -- -- 51
2017-10-29 13:00:00 21.7 6 Oeste 18 Sudoeste 0 -- -- 52
2017-10-29 12:00:00 20.4 8 Sudoeste 17 Oeste 0 -- -- 60
2017-10-29 11:00:00 20.5 4 Sur 12 Sur 0 -- -- 62
2017-10-29 10:00:00 17.8 4 Este 6 Este 0 -- -- 72
2017-10-29 09:00:00 14.4 0 Calma 6 Sur 0 -- -- 84
2017-10-29 08:00:00 11.6 0 Calma 10 Sudoeste 0 -- -- 92
2017-10-29 07:00:00 11.9 4 Sudoeste 13 Sudoeste 0 -- -- 91
2017-10-29 06:00:00 12.5 6 Sudoeste 14 Sudoeste 0 -- -- 90
2017-10-29 05:00:00 12 3 Sur 16 Sudoeste 0 -- -- 89
2017-10-29 04:00:00 12.7 9 Sudoeste 16 Sudoeste 0 -- -- 88
2017-10-29 03:00:00 12.7 5 Sudoeste 13 Sudoeste 0 -- -- 89
2017-10-29 02:00:00 13.4 7 Sudoeste 13 Sudoeste 0 -- -- 88
2017-10-29 01:00:00 14.4 9 Sudoeste 14 Sudoeste 0 -- -- 84
2017-10-29 00:00:00 14.4 6 Sudoeste 13 Sudoeste 0 -- -- 84
2017-10-28 23:00:00 15 5 Sudoeste 13 Sudoeste 0 -- -- 82
2017-10-28 22:00:00 15.6 5 Sudoeste 10 Sudoeste 0 -- -- 81
2017-10-28 21:00:00 16.4 5 Sudoeste 18 Sur 0 -- -- 77
2017-10-28 20:00:00 16.9 5 Sudoeste 15 Sudeste 0 -- -- 76
2017-10-28 19:00:00 18.2 4 Sur 14 Sudeste 0 -- -- 72
2017-10-28 18:00:00 19.7 8 Sur 22 Sur 0 -- -- 66
2017-10-28 17:00:00 19.8 12 Sur 25 Sur 0 -- -- 64
2017-10-28 16:00:00 22.2 11 Sur 21 Sur 0 -- -- 55
2017-10-28 15:00:00 20.7 12 Sur 21 Sudoeste 0 -- -- 60
2017-10-28 14:00:00 21.6 5 Este 15 Este 0 -- -- 53
2017-10-28 13:00:00 21.6 7 Este 15 Este 0 -- -- 56
2017-10-28 12:00:00 20.8 4 Nordeste 10 Este 0 -- -- 59
2017-10-28 11:00:00 19.1 3 Nordeste 9 Este 0 -- -- 67
2017-10-28 10:00:00 16 4 Sudoeste 9 Sudoeste 0 -- -- 79
2017-10-28 09:00:00 13.5 5 Sudoeste 9 Sudoeste 0 -- -- 84
2017-10-28 08:00:00 13.4 4 Sudoeste 14 Sudoeste 0 -- -- 82
2017-10-28 07:00:00 12.8 8 Sudoeste 15 Sudoeste 0 -- -- 84
2017-10-28 06:00:00 12.5 8 Sudoeste 13 Sudoeste 0 -- -- 81
2017-10-28 05:00:00 13.2 8 Sudoeste 12 Sudoeste 0 -- -- 80
2017-10-28 04:00:00 13.6 8 Sudoeste 11 Sudoeste 0 -- -- 80
2017-10-28 03:00:00 13.4 0 Calma 8 Sudoeste 0 -- -- 77
2017-10-28 02:00:00 14.7 4 Sur 8 Sudeste 0 -- -- 77
2017-10-28 01:00:00 16.1 3 Sur 8 Sur 0 -- -- 57
2017-10-28 00:00:00 16.6 3 Sudoeste 14 Oeste 0 -- -- 48
2017-10-27 23:00:00 18.2 10 Sudoeste 19 Sur 0 -- -- 43
2017-10-27 22:00:00 19.3 4 Sudoeste 22 Sudoeste 0 -- -- 42
2017-10-27 21:00:00 20.8 9 Sudoeste 16 Sudoeste 0 -- -- 40
2017-10-27 20:00:00 22.1 9 Sudoeste 14 Sudoeste 0 -- -- 39
2017-10-27 19:00:00 24.5 6 Sudoeste 12 Sudoeste 0 -- -- 35
2017-10-27 18:00:00 30 3 Nordeste 11 Este 0 -- -- 24
2017-10-27 17:00:00 29.3 6 Este 16 Este 0 -- -- 24
2017-10-27 16:00:00 29.4 7 Este 15 Este 0 -- -- 21
2017-10-27 15:00:00 28.7 9 Este 17 Este 0 -- -- 22
2017-10-27 14:00:00 27.5 9 Este 14 Este 0 -- -- 29
2017-10-27 13:00:00 26.5 5 Nordeste 10 Este 0 -- -- 31
2017-10-27 12:00:00 24.6 4 Nordeste 9 Este 0 -- -- 36
2017-10-27 11:00:00 21.9 0 Calma 9 Sudoeste 0 -- -- 40
2017-10-27 10:00:00 16.9 7 Sudoeste 17 Sudoeste 0 -- -- 47
2017-10-27 09:00:00 13.5 10 Sudoeste 17 Sudoeste 0 -- -- 55
2017-10-27 08:00:00 13.2 11 Sudoeste 20 Sudoeste 0 -- -- 56
2017-10-27 07:00:00 13 12 Sudoeste 19 Sudoeste 0 -- -- 59
2017-10-27 06:00:00 13.4 11 Sudoeste 19 Sudoeste 0 -- -- 58
2017-10-27 05:00:00 13.5 10 Sudoeste 20 Sudoeste 0 -- -- 58
2017-10-27 04:00:00 13.6 11 Sudoeste 19 Sudoeste 0 -- -- 57
2017-10-27 03:00:00 13.9 11 Sudoeste 18 Sudoeste 0 -- -- 55
2017-10-27 02:00:00 14.4 13 Sudoeste 19 Sudoeste 0 -- -- 53
2017-10-27 01:00:00 14.8 10 Sudoeste 18 Sudoeste 0 -- -- 51
2017-10-27 00:00:00 15.9 13 Sudoeste 19 Sudoeste 0 -- -- 48
2017-10-26 23:00:00 16.5 13 Sudoeste 18 Sudoeste 0 -- -- 49
2017-10-26 22:00:00 17.7 10 Sudoeste 19 Sudoeste 0 -- -- 48
2017-10-26 21:00:00 19 8 Sudoeste 16 Sudoeste 0 -- -- 49
2017-10-26 20:00:00 20.5 8 Sudoeste 15 Sudoeste 0 -- -- 48
2017-10-26 19:00:00 22.8 7 Sudoeste 19 Sudoeste 0 -- -- 40
2017-10-26 18:00:00 26.1 12 Sur 22 Sur 0 -- -- 34
2017-10-26 17:00:00 27.8 11 Sur 22 Sur 0 -- -- 29
2017-10-26 16:00:00 29.4 5 Sur 14 Sudoeste 0 -- -- 23
2017-10-26 15:00:00 29 7 Sudoeste 17 Sur 0 -- -- 22
2017-10-26 14:00:00 28.5 8 Sudeste 17 Sudeste 0 -- -- 25
2017-10-26 13:00:00 27.9 8 Sudeste 17 Sudeste 0 -- -- 24
2017-10-26 12:00:00 24.3 4 Nordeste 6 Este 0 -- -- 33
2017-10-26 11:00:00 21.5 3 Sudeste 10 Sudoeste 0 -- -- 38
2017-10-26 10:00:00 16.9 3 Sudoeste 18 Sudoeste 0 -- -- 43
2017-10-26 09:00:00 13.1 12 Sudoeste 19 Sudoeste 0 -- -- 51
2017-10-26 08:00:00 13.1 12 Sudoeste 18 Sudoeste 0 -- -- 52
2017-10-26 07:00:00 13.3 13 Sudoeste 19 Sudoeste 0 -- -- 53
2017-10-26 06:00:00 13.5 10 Sudoeste 17 Sudoeste 0 -- -- 54
2017-10-26 05:00:00 14.1 11 Sudoeste 21 Sudoeste 0 -- -- 53
2017-10-26 04:00:00 14.3 13 Sudoeste 19 Sudoeste 0 -- -- 54
2017-10-26 03:00:00 14.6 10 Sudoeste 20 Sudoeste 0 -- -- 54
2017-10-26 02:00:00 15.1 11 Sudoeste 18 Sudoeste 0 -- -- 54
2017-10-26 01:00:00 15.8 12 Sudoeste 19 Sudoeste 0 -- -- 53
2017-10-26 00:00:00 15.9 14 Sudoeste 20 Sudoeste 0 -- -- 54
2017-10-25 23:00:00 16.4 11 Sudoeste 18 Sudoeste 0 -- -- 54
2017-10-25 22:00:00 17.5 11 Sudoeste 18 Sudoeste 0 -- -- 53
2017-10-25 21:00:00 18.6 8 Sudoeste 16 Sudoeste 0 -- -- 53
2017-10-25 20:00:00 20.2 8 Sudoeste 15 Sudoeste 0 -- -- 53
2017-10-25 19:00:00 21.9 10 Sudoeste 24 Sur 0 -- -- 49
2017-10-25 18:00:00 24.8 12 Sur 26 Sur 0 -- -- 40
2017-10-25 17:00:00 26.3 12 Sur 27 Sur 0 -- -- 34
2017-10-25 16:00:00 26.9 11 Sur 28 Sur 0 -- -- 30
2017-10-25 15:00:00 27.5 10 Sur 23 Sur 0 -- -- 28
2017-10-25 14:00:00 27.9 8 Sur 21 Sur 0 -- -- 29
2017-10-25 13:00:00 27.4 6 Este 18 Este 0 -- -- 29
2017-10-25 12:00:00 25.1 4 Nordeste 8 Norte 0 -- -- 37
2017-10-25 11:00:00 21.3 2 Nordeste 7 Sudoeste 0 -- -- 44
2017-10-25 10:00:00 18.6 4 Sudoeste 18 Sudoeste 0 -- -- 46
2017-10-25 09:00:00 14.8 11 Sudoeste 19 Sudoeste 0 -- -- 53
2017-10-25 08:00:00 14.5 10 Sudoeste 16 Sudoeste 0 -- -- 54
2017-10-25 07:00:00 14.9 10 Sudoeste 15 Sudoeste 0 -- -- 52
2017-10-25 06:00:00 15.1 10 Sudoeste 16 Sudoeste 0 -- -- 51
2017-10-25 05:00:00 15.4 9 Sudoeste 16 Sudoeste 0 -- -- 50
2017-10-25 04:00:00 15.9 9 Sudoeste 16 Sudoeste 0 -- -- 49
2017-10-25 03:00:00 16.1 9 Sudoeste 15 Sudoeste 0 -- -- 48
2017-10-25 02:00:00 16.2 8 Sudoeste 14 Sudoeste 0 -- -- 47
2017-10-25 01:00:00 16.4 8 Sudoeste 16 Sudoeste 0 -- -- 46
2017-10-25 00:00:00 16.8 10 Sudoeste 17 Sudoeste 0 -- -- 48